メインページ
METAR-TAF:

METAR-TAF

空港 :

バンクーバー国際空港

バンクーバー, ブリティッシュコロンビア州, カナダ

緯度: 49-11N, 経度: 123-10W, 海抜: 3m

現時点の気象観測

当レポートは1時間14分前の20:00(UTC)に作成
の風 13kt
気温 7°C
湿度 76%
気圧 1016 hPa
視程: 48.3km
高度3500ftの雲はほとんどない
高度9500ftの千切れ雲あり
高度25000ftの曇り

METAR: CYVR 152000Z 09013KT 30SM FEW035 BKN095 OVC250 07/03 A3000 RMK SC1AC5CS2 CU EMBD SLP160

時間: 13:14 (21:14 UTC)

予報

当レポートは36分前の20:38(UTC)に作成
予報は15日の 21時(UTC)から 16日の 24時(UTC)まで有効
の風 12kt、最大22ktの突風を伴う
視程: 10km
高度4000ftの雲はほとんどない
高度10000ftの千切れ雲あり
15日の 21時(UTC)から 15日の 23時(UTC)まで一時的に
高度4000ftの千切れ雲あり
16日の 0300時(UTC)から
の風 15kt、最大25ktの突風を伴う
視程: 10km
高度6000ftの雲は散在している
高度10000ftの曇り
弱いにわか雨
16日の 0700時(UTC)から
の風 15kt、最大25ktの突風を伴う
視程: 10km
高度3000ftの曇り
小雨
16日の 1200時(UTC)から
の風 15kt、最大25ktの突風を伴う
視程: 10km
高度1200ftの雲は散在している
高度3000ftの曇り
小雨
16日の 12時(UTC)から 16日の 24時(UTC)まで一時的に
視程: 6.4km
高度1200ftの曇り
小雨, 靄

TAF: CYVR 152038Z 1521/1624 09012G22KT P6SM FEW040 BKN100 TEMPO 1521/1523 BKN040 FM160300 09015G25KT P6SM -SHRA SCT060 OVC100 FM160700 09015G25KT P6SM -RA OVC030 FM161200 09015G25KT P6SM -RA SCT012 OVC030 TEMPO 1612/1624 4SM -RA BR OVC012 RMK NXT FCST BY 160000Z

4,000以上の空港の気象観測と天気予報(METAR報とTAF報)

利用可能な観測所は地図上に黄色い丸と赤い丸で示す。

丸の上にカーソルを重ねると観測所名を参照できる。

次にクリックすると気象観測と天気予報を参照できる。

マップの切り替え:黒色「×」印の緑ボタンをクリックして拡大、「-」印の緑ボタンをクリックして縮小、緑色の三角印をクリックして隣りの地図に切り替え


METAR-TAF: